sensor_id;sensor_type;location;lat;lon;timestamp;P1;durP1;ratioP1;P2;durP2;ratioP2
55641;SDS011;41509;53.108;6.100;2023-02-11T00:01:47;11.35;;;3.42;;
55641;SDS011;41509;53.108;6.100;2023-02-11T00:04:13;9.70;;;2.73;;
55641;SDS011;41509;53.108;6.100;2023-02-11T00:06:39;15.80;;;3.20;;
55641;SDS011;41509;53.108;6.100;2023-02-11T00:09:05;7.20;;;2.43;;
55641;SDS011;41509;53.108;6.100;2023-02-11T00:11:31;8.80;;;2.80;;
55641;SDS011;41509;53.108;6.100;2023-02-11T00:13:57;13.60;;;3.63;;
55641;SDS011;41509;53.108;6.100;2023-02-11T00:16:25;13.55;;;3.40;;
55641;SDS011;41509;53.108;6.100;2023-02-11T00:18:50;9.57;;;2.60;;
55641;SDS011;41509;53.108;6.100;2023-02-11T00:21:19;9.90;;;3.55;;
55641;SDS011;41509;53.108;6.100;2023-02-11T00:23:46;10.23;;;3.38;;
55641;SDS011;41509;53.108;6.100;2023-02-11T00:26:19;10.88;;;2.83;;
55641;SDS011;41509;53.108;6.100;2023-02-11T00:28:47;10.77;;;3.20;;
55641;SDS011;41509;53.108;6.100;2023-02-11T00:31:14;14.43;;;3.67;;
55641;SDS011;41509;53.108;6.100;2023-02-11T00:36:07;12.57;;;3.03;;
55641;SDS011;41509;53.108;6.100;2023-02-11T00:38:36;11.60;;;3.72;;
55641;SDS011;41509;53.108;6.100;2023-02-11T00:41:02;10.23;;;3.27;;
55641;SDS011;41509;53.108;6.100;2023-02-11T00:43:27;11.83;;;3.10;;
55641;SDS011;41509;53.108;6.100;2023-02-11T00:45:53;12.73;;;3.03;;
55641;SDS011;41509;53.108;6.100;2023-02-11T00:48:19;14.20;;;4.25;;
55641;SDS011;41509;53.108;6.100;2023-02-11T00:50:45;14.87;;;4.40;;
55641;SDS011;41509;53.108;6.100;2023-02-11T00:53:10;11.93;;;3.67;;
55641;SDS011;41509;53.108;6.100;2023-02-11T00:55:36;13.57;;;3.80;;
55641;SDS011;41509;53.108;6.100;2023-02-11T00:58:01;12.43;;;3.90;;
55641;SDS011;41509;53.108;6.100;2023-02-11T01:00:27;18.07;;;4.57;;
55641;SDS011;41509;53.108;6.100;2023-02-11T01:02:53;15.03;;;3.53;;
55641;SDS011;41509;53.108;6.100;2023-02-11T01:05:19;15.40;;;3.85;;
55641;SDS011;41509;53.108;6.100;2023-02-11T01:07:44;12.63;;;3.53;;
55641;SDS011;41509;53.108;6.100;2023-02-11T01:10:10;18.95;;;3.63;;
55641;SDS011;41509;53.108;6.100;2023-02-11T01:12:36;12.48;;;3.50;;
55641;SDS011;41509;53.108;6.100;2023-02-11T01:15:03;13.90;;;3.55;;
55641;SDS011;41509;53.108;6.100;2023-02-11T01:17:29;12.80;;;4.35;;
55641;SDS011;41509;53.108;6.100;2023-02-11T01:19:55;17.23;;;4.03;;
55641;SDS011;41509;53.108;6.100;2023-02-11T01:22:21;13.67;;;3.43;;
55641;SDS011;41509;53.108;6.100;2023-02-11T01:24:47;15.53;;;3.83;;
55641;SDS011;41509;53.108;6.100;2023-02-11T01:27:12;13.87;;;3.73;;
55641;SDS011;41509;53.108;6.100;2023-02-11T01:29:38;25.87;;;5.03;;
55641;SDS011;41509;53.108;6.100;2023-02-11T01:32:04;14.97;;;4.33;;
55641;SDS011;41509;53.108;6.100;2023-02-11T01:34:30;16.40;;;4.50;;
55641;SDS011;41509;53.108;6.100;2023-02-11T01:36:56;14.37;;;4.60;;
55641;SDS011;41509;53.108;6.100;2023-02-11T01:39:23;16.15;;;4.45;;
55641;SDS011;41509;53.108;6.100;2023-02-11T01:41:49;12.30;;;4.45;;
55641;SDS011;41509;53.108;6.100;2023-02-11T01:46:58;15.30;;;3.60;;
55641;SDS011;41509;53.108;6.100;2023-02-11T01:51:59;16.65;;;4.53;;
55641;SDS011;41509;53.108;6.100;2023-02-11T01:54:31;13.00;;;4.72;;
55641;SDS011;41509;53.108;6.100;2023-02-11T01:57:18;14.85;;;3.80;;
55641;SDS011;41509;53.108;6.100;2023-02-11T02:02:22;17.17;;;4.85;;
55641;SDS011;41509;53.108;6.100;2023-02-11T02:10:38;15.85;;;4.35;;
55641;SDS011;41509;53.108;6.100;2023-02-11T02:13:06;9.50;;;4.47;;
55641;SDS011;41509;53.108;6.100;2023-02-11T02:15:32;13.03;;;4.63;;
55641;SDS011;41509;53.108;6.100;2023-02-11T02:18:01;16.27;;;5.20;;
55641;SDS011;41509;53.108;6.100;2023-02-11T02:20:36;13.43;;;4.78;;
55641;SDS011;41509;53.108;6.100;2023-02-11T02:23:30;17.80;;;6.85;;
55641;SDS011;41509;53.108;6.100;2023-02-11T02:31:33;11.48;;;5.40;;
55641;SDS011;41509;53.108;6.100;2023-02-11T02:37:08;15.00;;;5.50;;
55641;SDS011;41509;53.108;6.100;2023-02-11T02:39:41;18.15;;;6.28;;
55641;SDS011;41509;53.108;6.100;2023-02-11T02:42:09;14.63;;;6.15;;
55641;SDS011;41509;53.108;6.100;2023-02-11T02:44:36;18.17;;;6.25;;
55641;SDS011;41509;53.108;6.100;2023-02-11T02:47:02;15.33;;;6.23;;
55641;SDS011;41509;53.108;6.100;2023-02-11T02:49:28;21.00;;;6.30;;
55641;SDS011;41509;53.108;6.100;2023-02-11T02:54:29;17.88;;;6.45;;
55641;SDS011;41509;53.108;6.100;2023-02-11T02:57:12;14.43;;;6.15;;
55641;SDS011;41509;53.108;6.100;2023-02-11T03:03:16;18.63;;;7.82;;
55641;SDS011;41509;53.108;6.100;2023-02-11T03:06:02;17.35;;;6.55;;
55641;SDS011;41509;53.108;6.100;2023-02-11T03:08:53;18.55;;;6.53;;
55641;SDS011;41509;53.108;6.100;2023-02-11T03:11:23;21.90;;;7.70;;
55641;SDS011;41509;53.108;6.100;2023-02-11T03:13:50;21.20;;;7.13;;
55641;SDS011;41509;53.108;6.100;2023-02-11T03:16:20;16.25;;;6.85;;
55641;SDS011;41509;53.108;6.100;2023-02-11T03:18:52;21.90;;;7.50;;
55641;SDS011;41509;53.108;6.100;2023-02-11T03:21:28;24.55;;;7.78;;
55641;SDS011;41509;53.108;6.100;2023-02-11T03:23:57;23.05;;;7.80;;
55641;SDS011;41509;53.108;6.100;2023-02-11T03:26:27;19.17;;;7.65;;
55641;SDS011;41509;53.108;6.100;2023-02-11T03:31:40;18.13;;;7.70;;
55641;SDS011;41509;53.108;6.100;2023-02-11T03:34:26;25.20;;;9.27;;
55641;SDS011;41509;53.108;6.100;2023-02-11T03:37:02;22.42;;;7.47;;
55641;SDS011;41509;53.108;6.100;2023-02-11T03:39:34;23.08;;;8.25;;
55641;SDS011;41509;53.108;6.100;2023-02-11T03:42:04;14.63;;;7.57;;
55641;SDS011;41509;53.108;6.100;2023-02-11T03:44:34;25.90;;;8.00;;
55641;SDS011;41509;53.108;6.100;2023-02-11T03:47:03;20.98;;;9.07;;
55641;SDS011;41509;53.108;6.100;2023-02-11T03:49:31;20.25;;;8.27;;
55641;SDS011;41509;53.108;6.100;2023-02-11T03:51:59;20.35;;;8.13;;
55641;SDS011;41509;53.108;6.100;2023-02-11T03:54:28;22.60;;;8.40;;
55641;SDS011;41509;53.108;6.100;2023-02-11T03:56:56;27.90;;;8.75;;
55641;SDS011;41509;53.108;6.100;2023-02-11T03:59:24;22.25;;;9.63;;
55641;SDS011;41509;53.108;6.100;2023-02-11T04:01:50;26.70;;;8.63;;
55641;SDS011;41509;53.108;6.100;2023-02-11T04:04:16;24.07;;;9.53;;
55641;SDS011;41509;53.108;6.100;2023-02-11T04:06:42;27.20;;;8.65;;
55641;SDS011;41509;53.108;6.100;2023-02-11T04:09:09;22.80;;;9.63;;
55641;SDS011;41509;53.108;6.100;2023-02-11T04:11:35;23.58;;;8.70;;
55641;SDS011;41509;53.108;6.100;2023-02-11T04:14:01;22.17;;;8.40;;
55641;SDS011;41509;53.108;6.100;2023-02-11T04:16:27;19.57;;;7.77;;
55641;SDS011;41509;53.108;6.100;2023-02-11T04:18:54;17.40;;;8.15;;
55641;SDS011;41509;53.108;6.100;2023-02-11T04:21:21;26.85;;;9.25;;
55641;SDS011;41509;53.108;6.100;2023-02-11T04:23:47;21.63;;;7.80;;
55641;SDS011;41509;53.108;6.100;2023-02-11T04:26:12;21.77;;;8.20;;
55641;SDS011;41509;53.108;6.100;2023-02-11T04:28:38;31.97;;;10.70;;
55641;SDS011;41509;53.108;6.100;2023-02-11T04:31:04;20.00;;;8.27;;
55641;SDS011;41509;53.108;6.100;2023-02-11T04:33:30;21.67;;;9.60;;
55641;SDS011;41509;53.108;6.100;2023-02-11T04:35:55;21.37;;;9.00;;
55641;SDS011;41509;53.108;6.100;2023-02-11T04:38:21;26.50;;;8.43;;
55641;SDS011;41509;53.108;6.100;2023-02-11T04:40:48;20.05;;;9.32;;
55641;SDS011;41509;53.108;6.100;2023-02-11T04:43:14;22.77;;;9.75;;
55641;SDS011;41509;53.108;6.100;2023-02-11T04:45:40;19.97;;;7.80;;
55641;SDS011;41509;53.108;6.100;2023-02-11T04:48:06;20.40;;;9.33;;
55641;SDS011;41509;53.108;6.100;2023-02-11T04:50:31;20.67;;;9.50;;
55641;SDS011;41509;53.108;6.100;2023-02-11T04:52:57;22.20;;;8.67;;
55641;SDS011;41509;53.108;6.100;2023-02-11T04:55:23;23.37;;;9.53;;
55641;SDS011;41509;53.108;6.100;2023-02-11T04:57:48;21.77;;;8.93;;
55641;SDS011;41509;53.108;6.100;2023-02-11T05:00:14;18.20;;;8.53;;
55641;SDS011;41509;53.108;6.100;2023-02-11T05:02:40;24.73;;;8.50;;
55641;SDS011;41509;53.108;6.100;2023-02-11T05:05:06;27.57;;;8.60;;
55641;SDS011;41509;53.108;6.100;2023-02-11T05:07:32;17.30;;;8.00;;
55641;SDS011;41509;53.108;6.100;2023-02-11T05:09:57;18.20;;;8.00;;
55641;SDS011;41509;53.108;6.100;2023-02-11T05:12:23;22.00;;;8.57;;
55641;SDS011;41509;53.108;6.100;2023-02-11T05:14:48;21.97;;;8.77;;
55641;SDS011;41509;53.108;6.100;2023-02-11T05:17:14;22.17;;;9.30;;
55641;SDS011;41509;53.108;6.100;2023-02-11T05:19:40;17.37;;;7.90;;
55641;SDS011;41509;53.108;6.100;2023-02-11T05:22:06;17.50;;;8.00;;
55641;SDS011;41509;53.108;6.100;2023-02-11T05:24:32;19.92;;;8.90;;
55641;SDS011;41509;53.108;6.100;2023-02-11T05:26:59;24.20;;;7.68;;
55641;SDS011;41509;53.108;6.100;2023-02-11T05:29:25;19.17;;;8.95;;
55641;SDS011;41509;53.108;6.100;2023-02-11T05:31:51;23.30;;;8.32;;
55641;SDS011;41509;53.108;6.100;2023-02-11T05:34:16;20.70;;;8.57;;
55641;SDS011;41509;53.108;6.100;2023-02-11T05:36:42;26.53;;;8.87;;
55641;SDS011;41509;53.108;6.100;2023-02-11T05:39:08;20.13;;;8.20;;
55641;SDS011;41509;53.108;6.100;2023-02-11T05:41:33;22.73;;;8.43;;
55641;SDS011;41509;53.108;6.100;2023-02-11T05:43:59;20.10;;;8.47;;
55641;SDS011;41509;53.108;6.100;2023-02-11T05:46:24;21.67;;;9.63;;
55641;SDS011;41509;53.108;6.100;2023-02-11T05:48:50;21.93;;;9.23;;
55641;SDS011;41509;53.108;6.100;2023-02-11T05:51:16;16.53;;;7.50;;
55641;SDS011;41509;53.108;6.100;2023-02-11T05:53:41;19.10;;;9.00;;
55641;SDS011;41509;53.108;6.100;2023-02-11T05:56:07;15.87;;;7.87;;
55641;SDS011;41509;53.108;6.100;2023-02-11T05:58:34;18.58;;;9.13;;
55641;SDS011;41509;53.108;6.100;2023-02-11T06:01:00;18.13;;;8.80;;
55641;SDS011;41509;53.108;6.100;2023-02-11T06:03:25;19.27;;;8.30;;
55641;SDS011;41509;53.108;6.100;2023-02-11T06:05:51;15.60;;;7.37;;
55641;SDS011;41509;53.108;6.100;2023-02-11T06:08:17;21.10;;;8.43;;
55641;SDS011;41509;53.108;6.100;2023-02-11T06:10:46;18.97;;;8.37;;
55641;SDS011;41509;53.108;6.100;2023-02-11T06:13:11;16.33;;;7.65;;
55641;SDS011;41509;53.108;6.100;2023-02-11T06:15:37;15.80;;;7.50;;
55641;SDS011;41509;53.108;6.100;2023-02-11T06:18:03;14.20;;;7.97;;
55641;SDS011;41509;53.108;6.100;2023-02-11T06:20:29;16.73;;;7.85;;
55641;SDS011;41509;53.108;6.100;2023-02-11T06:22:54;21.40;;;8.67;;
55641;SDS011;41509;53.108;6.100;2023-02-11T06:25:20;19.20;;;8.03;;
55641;SDS011;41509;53.108;6.100;2023-02-11T06:27:46;15.17;;;7.57;;
55641;SDS011;41509;53.108;6.100;2023-02-11T06:30:11;21.27;;;7.30;;
55641;SDS011;41509;53.108;6.100;2023-02-11T06:32:37;14.52;;;7.57;;
55641;SDS011;41509;53.108;6.100;2023-02-11T06:35:03;16.40;;;7.80;;
55641;SDS011;41509;53.108;6.100;2023-02-11T06:37:29;23.50;;;8.03;;
55641;SDS011;41509;53.108;6.100;2023-02-11T06:39:54;17.87;;;7.77;;
55641;SDS011;41509;53.108;6.100;2023-02-11T06:42:20;18.90;;;7.73;;
55641;SDS011;41509;53.108;6.100;2023-02-11T06:44:46;15.50;;;7.47;;
55641;SDS011;41509;53.108;6.100;2023-02-11T06:47:11;17.37;;;7.67;;
55641;SDS011;41509;53.108;6.100;2023-02-11T06:49:37;17.33;;;8.27;;
55641;SDS011;41509;53.108;6.100;2023-02-11T06:52:03;15.70;;;8.03;;
55641;SDS011;41509;53.108;6.100;2023-02-11T06:54:28;21.20;;;8.30;;
55641;SDS011;41509;53.108;6.100;2023-02-11T06:56:54;18.23;;;7.10;;
55641;SDS011;41509;53.108;6.100;2023-02-11T06:59:20;17.47;;;8.00;;
55641;SDS011;41509;53.108;6.100;2023-02-11T07:01:46;20.23;;;8.93;;
55641;SDS011;41509;53.108;6.100;2023-02-11T07:04:12;15.02;;;7.72;;
55641;SDS011;41509;53.108;6.100;2023-02-11T07:06:38;17.45;;;7.97;;
55641;SDS011;41509;53.108;6.100;2023-02-11T07:09:04;22.10;;;8.13;;
55641;SDS011;41509;53.108;6.100;2023-02-11T07:11:31;18.63;;;7.93;;
55641;SDS011;41509;53.108;6.100;2023-02-11T07:16:30;17.60;;;7.32;;
55641;SDS011;41509;53.108;6.100;2023-02-11T07:18:56;14.60;;;7.75;;
55641;SDS011;41509;53.108;6.100;2023-02-11T07:21:22;19.07;;;8.73;;
55641;SDS011;41509;53.108;6.100;2023-02-11T07:23:48;17.52;;;8.07;;
55641;SDS011;41509;53.108;6.100;2023-02-11T07:26:18;23.70;;;9.25;;
55641;SDS011;41509;53.108;6.100;2023-02-11T07:28:47;21.13;;;8.05;;
55641;SDS011;41509;53.108;6.100;2023-02-11T07:33:41;24.48;;;8.75;;
55641;SDS011;41509;53.108;6.100;2023-02-11T07:38:34;21.40;;;7.90;;
55641;SDS011;41509;53.108;6.100;2023-02-11T07:41:02;19.60;;;8.70;;
55641;SDS011;41509;53.108;6.100;2023-02-11T07:43:29;17.77;;;6.95;;
55641;SDS011;41509;53.108;6.100;2023-02-11T07:45:55;20.77;;;9.40;;
55641;SDS011;41509;53.108;6.100;2023-02-11T07:48:21;19.73;;;8.20;;
55641;SDS011;41509;53.108;6.100;2023-02-11T07:50:46;16.97;;;6.97;;
55641;SDS011;41509;53.108;6.100;2023-02-11T07:53:12;18.23;;;9.07;;
55641;SDS011;41509;53.108;6.100;2023-02-11T07:55:38;16.60;;;8.27;;
55641;SDS011;41509;53.108;6.100;2023-02-11T07:58:06;21.02;;;7.90;;
55641;SDS011;41509;53.108;6.100;2023-02-11T08:00:32;18.87;;;8.30;;
55641;SDS011;41509;53.108;6.100;2023-02-11T08:02:58;17.83;;;8.10;;
55641;SDS011;41509;53.108;6.100;2023-02-11T08:05:23;18.50;;;7.77;;
55641;SDS011;41509;53.108;6.100;2023-02-11T08:07:50;16.43;;;7.40;;
55641;SDS011;41509;53.108;6.100;2023-02-11T08:10:18;16.73;;;7.95;;
55641;SDS011;41509;53.108;6.100;2023-02-11T08:12:44;18.58;;;8.95;;
55641;SDS011;41509;53.108;6.100;2023-02-11T08:15:10;21.47;;;8.53;;
55641;SDS011;41509;53.108;6.100;2023-02-11T08:17:36;18.93;;;8.17;;
55641;SDS011;41509;53.108;6.100;2023-02-11T08:20:02;17.52;;;7.88;;
55641;SDS011;41509;53.108;6.100;2023-02-11T08:22:34;17.38;;;8.15;;
55641;SDS011;41509;53.108;6.100;2023-02-11T08:25:00;16.48;;;8.15;;
55641;SDS011;41509;53.108;6.100;2023-02-11T08:27:26;15.47;;;7.27;;
55641;SDS011;41509;53.108;6.100;2023-02-11T08:29:52;20.00;;;8.47;;
55641;SDS011;41509;53.108;6.100;2023-02-11T08:34:44;20.35;;;8.57;;
55641;SDS011;41509;53.108;6.100;2023-02-11T08:37:10;19.45;;;8.23;;
55641;SDS011;41509;53.108;6.100;2023-02-11T08:39:36;22.45;;;8.32;;
55641;SDS011;41509;53.108;6.100;2023-02-11T08:42:02;17.83;;;7.10;;
55641;SDS011;41509;53.108;6.100;2023-02-11T08:44:27;16.45;;;7.53;;
55641;SDS011;41509;53.108;6.100;2023-02-11T08:46:54;18.35;;;8.07;;
55641;SDS011;41509;53.108;6.100;2023-02-11T08:49:19;17.23;;;7.50;;
55641;SDS011;41509;53.108;6.100;2023-02-11T08:51:46;19.77;;;8.27;;
55641;SDS011;41509;53.108;6.100;2023-02-11T08:54:12;21.58;;;7.68;;
55641;SDS011;41509;53.108;6.100;2023-02-11T08:56:38;21.17;;;8.90;;
55641;SDS011;41509;53.108;6.100;2023-02-11T08:59:04;16.40;;;7.17;;
55641;SDS011;41509;53.108;6.100;2023-02-11T09:01:31;17.35;;;7.47;;
55641;SDS011;41509;53.108;6.100;2023-02-11T09:03:57;17.10;;;6.50;;
55641;SDS011;41509;53.108;6.100;2023-02-11T09:06:24;16.33;;;6.93;;
55641;SDS011;41509;53.108;6.100;2023-02-11T09:08:51;20.63;;;7.30;;
55641;SDS011;41509;53.108;6.100;2023-02-11T09:11:20;23.20;;;7.50;;
55641;SDS011;41509;53.108;6.100;2023-02-11T09:13:49;17.58;;;6.63;;
55641;SDS011;41509;53.108;6.100;2023-02-11T09:16:19;14.87;;;6.40;;
55641;SDS011;41509;53.108;6.100;2023-02-11T09:18:46;18.92;;;7.43;;
55641;SDS011;41509;53.108;6.100;2023-02-11T09:21:12;14.63;;;6.95;;
55641;SDS011;41509;53.108;6.100;2023-02-11T09:23:40;17.63;;;6.80;;
55641;SDS011;41509;53.108;6.100;2023-02-11T09:28:39;17.20;;;6.78;;
55641;SDS011;41509;53.108;6.100;2023-02-11T09:31:06;17.40;;;7.03;;
55641;SDS011;41509;53.108;6.100;2023-02-11T09:33:32;14.90;;;5.90;;
55641;SDS011;41509;53.108;6.100;2023-02-11T09:36:02;12.93;;;5.72;;
55641;SDS011;41509;53.108;6.100;2023-02-11T09:38:29;17.17;;;6.15;;
55641;SDS011;41509;53.108;6.100;2023-02-11T09:40:56;17.75;;;7.00;;
55641;SDS011;41509;53.108;6.100;2023-02-11T09:43:22;13.00;;;6.10;;
55641;SDS011;41509;53.108;6.100;2023-02-11T09:45:55;16.48;;;6.20;;
55641;SDS011;41509;53.108;6.100;2023-02-11T09:48:21;18.55;;;5.45;;
55641;SDS011;41509;53.108;6.100;2023-02-11T09:55:52;14.48;;;6.10;;
55641;SDS011;41509;53.108;6.100;2023-02-11T10:06:43;16.23;;;5.88;;
55641;SDS011;41509;53.108;6.100;2023-02-11T10:23:24;10.50;;;4.13;;
55641;SDS011;41509;53.108;6.100;2023-02-11T10:25:54;11.32;;;3.92;;
55641;SDS011;41509;53.108;6.100;2023-02-11T10:28:33;14.93;;;4.53;;
55641;SDS011;41509;53.108;6.100;2023-02-11T10:34:05;6.32;;;3.22;;
55641;SDS011;41509;53.108;6.100;2023-02-11T10:36:36;8.45;;;3.35;;
55641;SDS011;41509;53.108;6.100;2023-02-11T10:39:15;11.18;;;3.88;;
55641;SDS011;41509;53.108;6.100;2023-02-11T10:41:44;14.93;;;3.25;;
55641;SDS011;41509;53.108;6.100;2023-02-11T10:46:58;13.15;;;3.25;;
55641;SDS011;41509;53.108;6.100;2023-02-11T10:49:36;14.80;;;2.80;;
55641;SDS011;41509;53.108;6.100;2023-02-11T10:52:23;8.40;;;3.05;;
55641;SDS011;41509;53.108;6.100;2023-02-11T10:57:27;13.70;;;3.92;;
55641;SDS011;41509;53.108;6.100;2023-02-11T10:59:57;10.77;;;3.22;;
55641;SDS011;41509;53.108;6.100;2023-02-11T11:02:27;9.15;;;2.70;;
55641;SDS011;41509;53.108;6.100;2023-02-11T11:04:58;11.50;;;2.42;;
55641;SDS011;41509;53.108;6.100;2023-02-11T11:07:30;10.18;;;3.10;;
55641;SDS011;41509;53.108;6.100;2023-02-11T11:10:40;9.38;;;2.55;;
55641;SDS011;41509;53.108;6.100;2023-02-11T11:16:15;8.57;;;2.58;;
55641;SDS011;41509;53.108;6.100;2023-02-11T11:18:44;10.40;;;2.40;;
55641;SDS011;41509;53.108;6.100;2023-02-11T11:23:39;7.15;;;2.28;;
55641;SDS011;41509;53.108;6.100;2023-02-11T11:26:13;8.20;;;2.45;;
55641;SDS011;41509;53.108;6.100;2023-02-11T11:28:42;10.95;;;2.53;;
55641;SDS011;41509;53.108;6.100;2023-02-11T11:31:15;9.98;;;2.28;;
55641;SDS011;41509;53.108;6.100;2023-02-11T11:33:44;14.85;;;2.35;;
55641;SDS011;41509;53.108;6.100;2023-02-11T11:36:12;6.65;;;2.88;;
55641;SDS011;41509;53.108;6.100;2023-02-11T11:38:54;11.73;;;2.00;;
55641;SDS011;41509;53.108;6.100;2023-02-11T11:43:55;9.68;;;2.53;;
55641;SDS011;41509;53.108;6.100;2023-02-11T11:46:33;6.55;;;1.88;;
55641;SDS011;41509;53.108;6.100;2023-02-11T11:51:50;12.20;;;2.00;;
55641;SDS011;41509;53.108;6.100;2023-02-11T11:54:39;7.68;;;2.10;;
55641;SDS011;41509;53.108;6.100;2023-02-11T11:57:11;7.65;;;1.58;;
55641;SDS011;41509;53.108;6.100;2023-02-11T11:59:41;4.40;;;1.67;;
55641;SDS011;41509;53.108;6.100;2023-02-11T12:15:51;9.02;;;2.08;;
55641;SDS011;41509;53.108;6.100;2023-02-11T12:32:54;5.32;;;2.13;;
55641;SDS011;41509;53.108;6.100;2023-02-11T12:36:01;4.25;;;1.98;;
55641;SDS011;41509;53.108;6.100;2023-02-11T12:41:29;7.47;;;1.63;;
55641;SDS011;41509;53.108;6.100;2023-02-11T12:44:35;10.10;;;2.17;;
55641;SDS011;41509;53.108;6.100;2023-02-11T12:55:32;7.25;;;1.67;;
55641;SDS011;41509;53.108;6.100;2023-02-11T12:58:01;7.68;;;1.88;;
55641;SDS011;41509;53.108;6.100;2023-02-11T13:00:38;9.50;;;2.05;;
55641;SDS011;41509;53.108;6.100;2023-02-11T13:03:44;11.63;;;2.33;;
55641;SDS011;41509;53.108;6.100;2023-02-11T13:06:28;16.13;;;2.38;;
55641;SDS011;41509;53.108;6.100;2023-02-11T13:09:05;14.13;;;2.33;;
55641;SDS011;41509;53.108;6.100;2023-02-11T13:11:48;7.68;;;1.67;;
55641;SDS011;41509;53.108;6.100;2023-02-11T13:14:23;13.07;;;3.10;;
55641;SDS011;41509;53.108;6.100;2023-02-11T13:16:53;6.28;;;1.45;;
55641;SDS011;41509;53.108;6.100;2023-02-11T13:19:36;7.15;;;2.08;;
55641;SDS011;41509;53.108;6.100;2023-02-11T13:22:25;4.75;;;1.63;;
55641;SDS011;41509;53.108;6.100;2023-02-11T13:31:17;8.32;;;1.52;;
55641;SDS011;41509;53.108;6.100;2023-02-11T13:33:44;6.75;;;2.25;;
55641;SDS011;41509;53.108;6.100;2023-02-11T13:36:34;9.15;;;1.70;;
55641;SDS011;41509;53.108;6.100;2023-02-11T13:39:00;8.25;;;1.27;;
55641;SDS011;41509;53.108;6.100;2023-02-11T13:41:29;8.73;;;1.63;;
55641;SDS011;41509;53.108;6.100;2023-02-11T13:44:00;32.85;;;16.20;;
55641;SDS011;41509;53.108;6.100;2023-02-11T13:46:29;12.32;;;2.38;;
55641;SDS011;41509;53.108;6.100;2023-02-11T13:49:24;10.77;;;4.20;;
55641;SDS011;41509;53.108;6.100;2023-02-11T13:51:53;8.68;;;2.40;;
55641;SDS011;41509;53.108;6.100;2023-02-11T13:54:36;7.05;;;1.33;;
55641;SDS011;41509;53.108;6.100;2023-02-11T13:59:54;5.95;;;1.88;;
55641;SDS011;41509;53.108;6.100;2023-02-11T14:05:20;11.13;;;3.15;;
55641;SDS011;41509;53.108;6.100;2023-02-11T14:10:53;7.72;;;2.33;;
55641;SDS011;41509;53.108;6.100;2023-02-11T14:13:30;4.85;;;2.15;;
55641;SDS011;41509;53.108;6.100;2023-02-11T14:16:04;6.10;;;1.40;;
55641;SDS011;41509;53.108;6.100;2023-02-11T14:21:13;5.93;;;1.90;;
55641;SDS011;41509;53.108;6.100;2023-02-11T14:26:41;4.75;;;1.17;;
55641;SDS011;41509;53.108;6.100;2023-02-11T14:43:12;4.03;;;1.67;;
55641;SDS011;41509;53.108;6.100;2023-02-11T14:45:44;5.43;;;1.67;;
55641;SDS011;41509;53.108;6.100;2023-02-11T14:48:15;5.55;;;1.55;;
55641;SDS011;41509;53.108;6.100;2023-02-11T14:50:43;5.18;;;1.90;;
55641;SDS011;41509;53.108;6.100;2023-02-11T14:53:16;11.70;;;2.97;;
55641;SDS011;41509;53.108;6.100;2023-02-11T14:55:44;22.42;;;2.88;;
55641;SDS011;41509;53.108;6.100;2023-02-11T15:00:49;9.73;;;2.45;;
55641;SDS011;41509;53.108;6.100;2023-02-11T15:05:57;10.10;;;2.05;;
55641;SDS011;41509;53.108;6.100;2023-02-11T15:08:49;10.52;;;2.55;;
55641;SDS011;41509;53.108;6.100;2023-02-11T15:11:21;8.30;;;1.73;;
55641;SDS011;41509;53.108;6.100;2023-02-11T15:13:49;9.23;;;2.17;;
55641;SDS011;41509;53.108;6.100;2023-02-11T15:16:17;7.68;;;1.90;;
55641;SDS011;41509;53.108;6.100;2023-02-11T15:18:48;11.68;;;2.78;;
55641;SDS011;41509;53.108;6.100;2023-02-11T15:21:22;9.60;;;2.65;;
55641;SDS011;41509;53.108;6.100;2023-02-11T15:23:55;10.25;;;3.58;;
55641;SDS011;41509;53.108;6.100;2023-02-11T15:26:27;8.52;;;3.28;;
55641;SDS011;41509;53.108;6.100;2023-02-11T15:28:53;8.95;;;2.10;;
55641;SDS011;41509;53.108;6.100;2023-02-11T15:31:21;13.30;;;2.42;;
55641;SDS011;41509;53.108;6.100;2023-02-11T15:33:49;10.02;;;2.00;;
55641;SDS011;41509;53.108;6.100;2023-02-11T15:36:16;16.45;;;3.00;;
55641;SDS011;41509;53.108;6.100;2023-02-11T15:38:45;7.32;;;3.03;;
55641;SDS011;41509;53.108;6.100;2023-02-11T15:44:45;13.20;;;2.83;;
55641;SDS011;41509;53.108;6.100;2023-02-11T15:47:15;13.20;;;3.13;;
55641;SDS011;41509;53.108;6.100;2023-02-11T15:49:57;11.07;;;2.38;;
55641;SDS011;41509;53.108;6.100;2023-02-11T15:52:25;12.48;;;3.13;;
55641;SDS011;41509;53.108;6.100;2023-02-11T15:54:52;10.48;;;2.65;;
55641;SDS011;41509;53.108;6.100;2023-02-11T15:57:20;10.30;;;2.75;;
55641;SDS011;41509;53.108;6.100;2023-02-11T15:59:49;12.95;;;2.58;;
55641;SDS011;41509;53.108;6.100;2023-02-11T16:05:00;10.15;;;2.25;;
55641;SDS011;41509;53.108;6.100;2023-02-11T16:10:23;5.05;;;2.30;;
55641;SDS011;41509;53.108;6.100;2023-02-11T16:13:02;10.10;;;2.80;;
55641;SDS011;41509;53.108;6.100;2023-02-11T16:18:34;11.57;;;3.55;;
55641;SDS011;41509;53.108;6.100;2023-02-11T16:21:13;9.27;;;2.20;;
55641;SDS011;41509;53.108;6.100;2023-02-11T16:23:40;9.25;;;2.47;;
55641;SDS011;41509;53.108;6.100;2023-02-11T16:26:21;9.60;;;1.90;;
55641;SDS011;41509;53.108;6.100;2023-02-11T16:28:49;11.25;;;2.13;;
55641;SDS011;41509;53.108;6.100;2023-02-11T16:31:15;6.20;;;2.03;;
55641;SDS011;41509;53.108;6.100;2023-02-11T16:33:41;12.52;;;2.72;;
55641;SDS011;41509;53.108;6.100;2023-02-11T16:36:14;10.27;;;2.43;;
55641;SDS011;41509;53.108;6.100;2023-02-11T16:38:43;4.15;;;1.52;;
55641;SDS011;41509;53.108;6.100;2023-02-11T16:41:08;10.23;;;2.93;;
55641;SDS011;41509;53.108;6.100;2023-02-11T16:43:37;11.07;;;3.40;;
55641;SDS011;41509;53.108;6.100;2023-02-11T16:48:29;8.80;;;1.85;;
55641;SDS011;41509;53.108;6.100;2023-02-11T16:50:56;7.93;;;2.75;;
55641;SDS011;41509;53.108;6.100;2023-02-11T16:53:22;8.73;;;2.43;;
55641;SDS011;41509;53.108;6.100;2023-02-11T16:55:51;12.95;;;2.75;;
55641;SDS011;41509;53.108;6.100;2023-02-11T16:58:17;8.63;;;4.00;;
55641;SDS011;41509;53.108;6.100;2023-02-11T17:00:44;15.30;;;5.25;;
55641;SDS011;41509;53.108;6.100;2023-02-11T17:03:16;6.95;;;2.47;;
55641;SDS011;41509;53.108;6.100;2023-02-11T17:05:48;9.93;;;4.03;;
55641;SDS011;41509;53.108;6.100;2023-02-11T17:08:14;10.77;;;3.03;;
55641;SDS011;41509;53.108;6.100;2023-02-11T17:10:40;8.37;;;2.60;;
55641;SDS011;41509;53.108;6.100;2023-02-11T17:13:07;10.70;;;2.70;;
55641;SDS011;41509;53.108;6.100;2023-02-11T17:15:33;14.20;;;2.90;;
55641;SDS011;41509;53.108;6.100;2023-02-11T17:17:59;4.70;;;1.90;;
55641;SDS011;41509;53.108;6.100;2023-02-11T17:20:24;10.38;;;2.50;;
55641;SDS011;41509;53.108;6.100;2023-02-11T17:22:50;11.57;;;3.10;;
55641;SDS011;41509;53.108;6.100;2023-02-11T17:25:16;6.07;;;1.90;;
55641;SDS011;41509;53.108;6.100;2023-02-11T17:27:42;10.18;;;2.42;;
55641;SDS011;41509;53.108;6.100;2023-02-11T17:30:09;17.83;;;3.20;;
55641;SDS011;41509;53.108;6.100;2023-02-11T17:32:37;8.32;;;3.90;;
55641;SDS011;41509;53.108;6.100;2023-02-11T17:35:02;14.47;;;4.20;;
55641;SDS011;41509;53.108;6.100;2023-02-11T17:37:31;15.40;;;2.95;;
55641;SDS011;41509;53.108;6.100;2023-02-11T17:39:56;8.57;;;2.30;;
55641;SDS011;41509;53.108;6.100;2023-02-11T17:42:22;8.70;;;2.10;;
55641;SDS011;41509;53.108;6.100;2023-02-11T17:44:47;8.23;;;2.10;;
55641;SDS011;41509;53.108;6.100;2023-02-11T17:47:13;8.90;;;2.00;;
55641;SDS011;41509;53.108;6.100;2023-02-11T17:49:39;11.23;;;3.90;;
55641;SDS011;41509;53.108;6.100;2023-02-11T17:52:04;10.53;;;4.77;;
55641;SDS011;41509;53.108;6.100;2023-02-11T17:54:30;11.40;;;4.67;;
55641;SDS011;41509;53.108;6.100;2023-02-11T17:56:56;12.27;;;2.60;;